createdAt,value
2022-09-18T00:00:56.846Z,1.65
2022-09-18T00:03:23.308Z,0.60
2022-09-18T00:05:49.720Z,0.82
2022-09-18T00:08:16.125Z,1.15
2022-09-18T00:10:45.565Z,1.00
2022-09-18T00:13:13.407Z,1.02
2022-09-18T00:15:40.349Z,1.35
2022-09-18T00:18:07.942Z,1.10
2022-09-18T00:20:35.797Z,1.35
2022-09-18T00:23:02.236Z,1.23
2022-09-18T00:25:29.552Z,0.98
2022-09-18T00:27:55.890Z,1.00
2022-09-18T00:30:22.308Z,1.10
2022-09-18T00:32:48.622Z,1.10
2022-09-18T00:35:15.042Z,1.05
2022-09-18T00:37:41.344Z,0.88
2022-09-18T00:40:08.114Z,1.42
2022-09-18T00:42:34.491Z,1.30
2022-09-18T00:45:00.843Z,1.20
2022-09-18T00:47:35.226Z,1.40
2022-09-18T00:50:10.230Z,0.50
2022-09-18T00:52:43.180Z,1.58
2022-09-18T00:55:10.707Z,0.85
2022-09-18T00:57:44.655Z,0.60
2022-09-18T01:00:14.576Z,1.10
2022-09-18T01:02:43.369Z,1.75
2022-09-18T01:05:10.704Z,1.55
2022-09-18T01:07:58.128Z,2.38
2022-09-18T01:10:27.420Z,2.17
2022-09-18T01:12:58.368Z,2.30
2022-09-18T01:15:30.496Z,1.52
2022-09-18T01:18:23.463Z,1.52
2022-09-18T01:21:14.853Z,2.42
2022-09-18T01:24:09.095Z,2.08
2022-09-18T01:26:55.848Z,2.10
2022-09-18T01:29:42.435Z,2.22
2022-09-18T01:32:25.480Z,1.92
2022-09-18T01:34:59.038Z,1.40
2022-09-18T01:37:41.519Z,1.88
2022-09-18T01:40:23.256Z,1.60
2022-09-18T01:42:51.962Z,0.98
2022-09-18T01:45:27.741Z,0.65
2022-09-18T01:47:58.613Z,1.50
2022-09-18T01:50:28.300Z,0.85
2022-09-18T01:53:33.729Z,1.02
2022-09-18T01:56:06.259Z,1.60
2022-09-18T01:58:34.388Z,1.38
2022-09-18T02:01:05.665Z,1.30
2022-09-18T02:06:09.726Z,1.05
2022-09-18T02:08:54.002Z,1.60
2022-09-18T02:11:22.417Z,2.08
2022-09-18T02:14:01.113Z,1.27
2022-09-18T02:16:42.067Z,1.52
2022-09-18T02:19:16.971Z,1.42
2022-09-18T02:21:45.519Z,1.35
2022-09-18T02:24:16.861Z,1.65
2022-09-18T02:26:45.982Z,1.15
2022-09-18T02:29:15.303Z,1.20
2022-09-18T02:31:41.819Z,1.33
2022-09-18T02:34:11.217Z,1.35
2022-09-18T02:36:43.013Z,1.83
2022-09-18T02:39:16.585Z,2.22
2022-09-18T02:42:08.785Z,2.10
2022-09-18T02:44:54.434Z,1.55
2022-09-18T02:47:38.918Z,0.80
2022-09-18T02:50:26.890Z,0.70
2022-09-18T02:53:04.265Z,2.05
2022-09-18T02:55:40.875Z,2.47
2022-09-18T02:58:17.520Z,2.45
2022-09-18T03:00:47.401Z,2.38
2022-09-18T03:03:17.813Z,1.92
2022-09-18T03:05:44.897Z,2.77
2022-09-18T03:08:12.496Z,1.83
2022-09-18T03:10:38.850Z,2.08
2022-09-18T03:13:05.184Z,1.52
2022-09-18T03:15:31.918Z,1.90
2022-09-18T03:17:58.250Z,1.50
2022-09-18T03:20:24.585Z,1.40
2022-09-18T03:22:50.916Z,1.17
2022-09-18T03:25:17.260Z,0.95
2022-09-18T03:27:43.618Z,0.85
2022-09-18T03:30:10.443Z,0.85
2022-09-18T03:32:36.925Z,0.80
2022-09-18T03:35:03.349Z,0.60
2022-09-18T03:37:29.708Z,0.77
2022-09-18T03:39:56.054Z,1.13
2022-09-18T03:42:22.512Z,2.30
2022-09-18T03:44:48.843Z,2.40
2022-09-18T03:47:15.618Z,3.05
2022-09-18T03:49:41.925Z,3.40
2022-09-18T03:52:08.242Z,2.40
2022-09-18T03:54:34.545Z,1.67
2022-09-18T03:57:00.994Z,1.00
2022-09-18T03:59:27.317Z,0.80
2022-09-18T04:01:53.777Z,0.73
2022-09-18T04:04:20.229Z,0.93
2022-09-18T04:06:46.541Z,0.52
2022-09-18T04:09:12.859Z,0.75
2022-09-18T04:11:39.212Z,0.80
2022-09-18T04:14:05.534Z,1.10
2022-09-18T04:16:31.968Z,1.85
2022-09-18T04:18:58.458Z,1.10
2022-09-18T04:21:24.992Z,1.17
2022-09-18T04:23:51.743Z,2.00
2022-09-18T04:26:18.141Z,1.10
2022-09-18T04:28:44.443Z,0.80
2022-09-18T04:31:10.830Z,0.82
2022-09-18T04:33:37.175Z,0.20
2022-09-18T04:36:03.727Z,0.60
2022-09-18T04:38:30.075Z,0.52
2022-09-18T04:40:57.590Z,0.55
2022-09-18T04:43:24.991Z,0.75
2022-09-18T04:45:51.480Z,1.05
2022-09-18T04:48:18.682Z,1.00
2022-09-18T04:50:46.659Z,0.90
2022-09-18T04:53:13.357Z,1.23
2022-09-18T04:55:42.125Z,0.57
2022-09-18T04:58:08.590Z,0.65
2022-09-18T05:00:36.088Z,0.60
2022-09-18T05:03:02.496Z,0.80
2022-09-18T05:05:28.864Z,0.82
2022-09-18T05:07:59.086Z,0.32
2022-09-18T05:10:26.115Z,0.75
2022-09-18T05:12:52.576Z,0.60
2022-09-18T05:15:19.747Z,1.55
2022-09-18T05:17:46.722Z,0.30
2022-09-18T05:20:13.789Z,0.68
2022-09-18T05:22:45.265Z,0.70
2022-09-18T05:25:11.586Z,1.10
2022-09-18T05:27:37.878Z,0.98
2022-09-18T05:30:04.792Z,1.02
2022-09-18T05:32:31.099Z,1.95
2022-09-18T05:34:57.413Z,1.85
2022-09-18T05:37:23.802Z,2.10
2022-09-18T05:39:50.134Z,1.90
2022-09-18T05:42:16.461Z,1.33
2022-09-18T05:44:43.033Z,1.13
2022-09-18T05:47:09.688Z,2.50
2022-09-18T05:49:36.019Z,3.10
2022-09-18T05:52:02.655Z,1.67
2022-09-18T05:54:29.053Z,1.30
2022-09-18T05:56:55.349Z,0.90
2022-09-18T05:59:22.256Z,1.38
2022-09-18T06:01:48.712Z,1.30
2022-09-18T06:04:15.070Z,2.45
2022-09-18T06:06:41.444Z,1.30
2022-09-18T06:09:07.776Z,1.15
2022-09-18T06:11:34.079Z,0.45
2022-09-18T06:14:00.983Z,0.73
2022-09-18T06:16:28.418Z,0.50
2022-09-18T06:18:55.000Z,0.70
2022-09-18T06:21:21.292Z,0.70
2022-09-18T06:23:47.632Z,0.50
2022-09-18T06:26:15.090Z,0.30
2022-09-18T06:28:41.682Z,0.30
2022-09-18T06:31:09.726Z,0.40
2022-09-18T06:33:36.224Z,0.57
2022-09-18T06:36:08.077Z,0.10
2022-09-18T06:38:34.454Z,0.40
2022-09-18T06:41:00.774Z,0.73
2022-09-18T06:43:27.091Z,0.47
2022-09-18T06:45:54.871Z,0.20
2022-09-18T06:48:22.287Z,0.50
2022-09-18T06:50:59.452Z,0.30
2022-09-18T06:53:26.314Z,0.73
2022-09-18T06:55:52.679Z,0.57
2022-09-18T06:58:20.189Z,0.50
2022-09-18T07:00:46.627Z,0.85
2022-09-18T07:03:13.332Z,0.70
2022-09-18T07:05:42.544Z,0.80
2022-09-18T07:08:09.680Z,0.60
2022-09-18T07:10:36.308Z,1.35
2022-09-18T07:13:02.663Z,0.80
2022-09-18T07:15:29.320Z,0.63
2022-09-18T07:17:57.123Z,1.40
2022-09-18T07:20:23.621Z,1.13
2022-09-18T07:23:01.065Z,1.35
2022-09-18T07:25:29.340Z,1.10
2022-09-18T07:27:55.701Z,1.00
2022-09-18T07:30:22.124Z,0.73
2022-09-18T07:32:48.855Z,0.77
2022-09-18T07:35:15.513Z,0.50
2022-09-18T07:37:41.877Z,0.60
2022-09-18T07:40:09.620Z,0.47
2022-09-18T07:42:36.090Z,0.45
2022-09-18T07:45:02.680Z,0.40
2022-09-18T07:47:29.817Z,0.40
2022-09-18T07:49:56.399Z,0.50
2022-09-18T07:52:22.929Z,0.63
2022-09-18T07:54:49.602Z,0.43
2022-09-18T07:57:15.944Z,0.43
2022-09-18T07:59:42.419Z,0.40
2022-09-18T08:02:08.868Z,0.50
2022-09-18T08:04:35.295Z,0.70
2022-09-18T08:07:04.127Z,0.60
2022-09-18T08:09:30.869Z,0.47
2022-09-18T08:11:57.403Z,0.55
2022-09-18T08:14:28.569Z,0.52
2022-09-18T08:16:55.663Z,0.85
2022-09-18T08:19:22.003Z,0.50
2022-09-18T08:21:48.326Z,0.60
2022-09-18T08:24:17.529Z,0.38
2022-09-18T08:26:44.453Z,0.30
2022-09-18T08:29:13.825Z,0.50
2022-09-18T08:31:40.297Z,0.80
2022-09-18T08:34:06.694Z,0.40
2022-09-18T08:36:33.025Z,0.60
2022-09-18T08:38:59.883Z,0.90
2022-09-18T08:41:44.252Z,1.30
2022-09-18T08:44:15.552Z,0.50
2022-09-18T08:46:56.560Z,0.30
2022-09-18T08:49:29.536Z,0.43
2022-09-18T08:52:18.728Z,0.30
2022-09-18T08:54:59.292Z,0.40
2022-09-18T08:57:33.881Z,0.67
2022-09-18T09:00:08.299Z,0.20
2022-09-18T09:02:42.992Z,0.35
2022-09-18T09:05:13.985Z,0.52
2022-09-18T09:08:14.608Z,0.15
2022-09-18T09:11:02.016Z,0.50
2022-09-18T09:13:46.640Z,0.40
2022-09-18T09:16:25.872Z,0.47
2022-09-18T09:19:01.302Z,0.30
2022-09-18T09:21:50.413Z,0.40
2022-09-18T09:24:32.097Z,0.40
2022-09-18T09:27:02.344Z,0.28
2022-09-18T09:29:37.319Z,0.50
2022-09-18T09:32:22.199Z,0.30
2022-09-18T09:35:23.617Z,0.40
2022-09-18T09:37:51.841Z,0.25
2022-09-18T09:40:41.372Z,0.30
2022-09-18T09:43:27.797Z,0.40
2022-09-18T09:46:03.173Z,0.70
2022-09-18T09:48:41.839Z,1.67
2022-09-18T09:51:27.953Z,0.50
2022-09-18T09:53:55.934Z,0.80
2022-09-18T09:56:42.253Z,0.45
2022-09-18T09:59:22.169Z,0.60
2022-09-18T10:02:08.429Z,0.52
2022-09-18T10:04:48.480Z,0.68
2022-09-18T10:07:22.707Z,0.82
2022-09-18T10:10:20.161Z,0.43
2022-09-18T10:12:58.789Z,0.57
2022-09-18T10:15:35.445Z,0.40
2022-09-18T10:18:05.868Z,0.70
2022-09-18T10:20:33.179Z,0.43
2022-09-18T10:23:09.910Z,0.73
2022-09-18T10:25:45.175Z,0.80
2022-09-18T10:28:15.419Z,0.30
2022-09-18T10:31:06.446Z,0.50
2022-09-18T10:33:52.897Z,0.82
2022-09-18T10:36:51.852Z,0.20
2022-09-18T10:39:32.988Z,0.30
2022-09-18T10:42:07.817Z,0.22
2022-09-18T10:44:41.286Z,0.40
2022-09-18T10:47:10.868Z,0.52
2022-09-18T10:50:07.208Z,0.32
2022-09-18T10:52:36.890Z,0.40
2022-09-18T10:55:06.612Z,0.47
2022-09-18T10:58:12.729Z,0.40
2022-09-18T11:01:07.716Z,0.40
2022-09-18T11:03:40.819Z,0.30
2022-09-18T11:06:14.433Z,0.50
2022-09-18T11:08:48.083Z,0.40
2022-09-18T11:11:25.666Z,0.10
2022-09-18T11:13:58.180Z,0.35
2022-09-18T11:16:27.895Z,0.40
2022-09-18T11:19:06.510Z,0.30
2022-09-18T11:21:41.287Z,0.30
2022-09-18T11:24:21.771Z,0.40
2022-09-18T11:26:57.031Z,0.30
2022-09-18T11:29:39.803Z,0.20
2022-09-18T11:32:30.037Z,0.40
2022-09-18T11:35:01.696Z,0.30
2022-09-18T11:37:34.920Z,0.22
2022-09-18T11:40:07.015Z,0.22
2022-09-18T11:42:40.988Z,0.30
2022-09-18T11:45:28.963Z,0.40
2022-09-18T11:48:04.096Z,0.20
2022-09-18T11:50:35.157Z,0.38
2022-09-18T11:53:14.754Z,0.50
2022-09-18T11:55:49.749Z,0.55
2022-09-18T11:58:34.377Z,0.40
2022-09-18T12:01:32.635Z,0.28
2022-09-18T12:04:36.194Z,0.65
2022-09-18T12:07:37.216Z,0.20
2022-09-18T12:10:30.510Z,0.40
2022-09-18T12:13:21.148Z,0.32
2022-09-18T12:15:57.111Z,0.50
2022-09-18T16:26:33.863Z,0.97
2022-09-18T16:29:04.058Z,1.42
2022-09-18T16:31:33.292Z,0.65
2022-09-18T16:34:05.005Z,0.43
2022-09-18T16:36:39.473Z,0.50
2022-09-18T16:39:08.613Z,0.30
2022-09-18T16:41:35.755Z,0.20
2022-09-18T16:44:04.069Z,0.40
2022-09-18T16:46:52.142Z,0.47
2022-09-18T16:49:32.232Z,0.50
2022-09-18T16:51:58.937Z,0.50
2022-09-18T16:54:25.830Z,0.60
2022-09-18T16:57:20.290Z,0.65
2022-09-18T16:59:48.162Z,0.40
2022-09-18T17:02:16.793Z,0.40
2022-09-18T17:04:43.368Z,0.65
2022-09-18T17:07:09.858Z,0.40
2022-09-18T17:09:36.279Z,0.60
2022-09-18T17:12:03.108Z,0.43
2022-09-18T17:14:29.618Z,0.70
2022-09-18T17:16:56.050Z,0.77
2022-09-18T17:19:22.424Z,0.85
2022-09-18T17:21:49.292Z,1.10
2022-09-18T17:24:17.309Z,0.90
2022-09-18T17:26:43.697Z,0.47
2022-09-18T17:29:13.712Z,0.60
2022-09-18T17:31:40.279Z,0.30
2022-09-18T17:34:07.217Z,0.45
2022-09-18T17:36:36.628Z,0.45
2022-09-18T17:39:03.805Z,0.30
2022-09-18T17:41:31.800Z,0.50
2022-09-18T17:43:58.332Z,0.40
2022-09-18T17:46:25.079Z,0.50
2022-09-18T17:48:56.455Z,0.40
2022-09-18T17:54:02.592Z,0.50
2022-09-18T17:56:32.466Z,0.60
2022-09-18T17:59:01.656Z,0.60
2022-09-18T18:01:29.263Z,0.45
2022-09-18T18:03:57.123Z,0.82
2022-09-18T18:06:24.178Z,0.70
2022-09-18T18:08:51.230Z,0.63
2022-09-18T18:11:22.183Z,0.70
2022-09-18T18:13:49.754Z,0.52
2022-09-18T18:16:28.803Z,1.40
2022-09-18T18:18:57.818Z,1.42
2022-09-18T18:21:25.246Z,1.77
2022-09-18T18:23:56.857Z,1.10
2022-09-18T18:26:23.568Z,1.70
2022-09-18T18:28:50.154Z,0.98
2022-09-18T18:31:17.292Z,1.00
2022-09-18T18:33:43.987Z,0.90
2022-09-18T18:36:18.055Z,0.90
2022-09-18T18:38:45.987Z,1.00
2022-09-18T18:41:13.977Z,0.75
2022-09-18T18:43:40.946Z,0.60
2022-09-18T18:46:12.659Z,0.30
2022-09-18T18:48:40.420Z,0.50
2022-09-18T18:51:13.948Z,0.85
2022-09-18T18:53:41.886Z,0.75
2022-09-18T18:56:16.069Z,0.50
2022-09-18T18:58:44.082Z,0.50
2022-09-18T19:01:17.145Z,0.55
2022-09-18T19:03:51.750Z,0.75
2022-09-18T19:06:19.182Z,0.68
2022-09-18T19:08:46.277Z,0.50
2022-09-18T19:11:18.759Z,0.70
2022-09-18T19:13:56.503Z,1.05
2022-09-18T19:16:31.108Z,0.70
2022-09-18T19:18:59.698Z,0.50
2022-09-18T19:21:27.741Z,0.90
2022-09-18T19:23:58.714Z,1.45
2022-09-18T19:26:27.741Z,1.10
2022-09-18T19:28:56.900Z,0.60
2022-09-18T19:31:24.293Z,0.60
2022-09-18T19:33:52.264Z,0.90
2022-09-18T19:36:20.804Z,0.60
2022-09-18T19:38:51.771Z,0.50
2022-09-18T19:41:46.300Z,0.75
2022-09-18T19:44:36.126Z,0.50
2022-09-18T19:47:07.211Z,1.00
2022-09-18T19:49:37.524Z,1.25
2022-09-18T19:52:33.735Z,0.80
2022-09-18T19:55:02.440Z,0.63
2022-09-18T19:57:30.024Z,0.90
2022-09-18T20:00:01.006Z,0.98
2022-09-18T20:02:27.413Z,0.60
2022-09-18T20:04:55.170Z,0.60
2022-09-18T20:07:21.518Z,0.93
2022-09-18T20:09:48.651Z,1.25
2022-09-18T20:12:15.227Z,1.00
2022-09-18T20:14:41.607Z,1.35
2022-09-18T20:17:08.247Z,0.95
2022-09-18T20:19:34.770Z,0.80
2022-09-18T20:22:03.123Z,0.70
2022-09-18T20:24:30.783Z,0.65
2022-09-18T20:26:58.322Z,0.77
2022-09-18T20:29:25.071Z,0.68
2022-09-18T20:31:51.504Z,0.90
2022-09-18T20:34:19.943Z,0.90
2022-09-18T20:36:48.795Z,0.98
2022-09-18T20:39:16.118Z,1.02
2022-09-18T20:41:42.494Z,1.23
2022-09-18T20:44:09.959Z,0.90
2022-09-18T20:46:40.379Z,1.20
2022-09-18T20:49:08.087Z,1.10
2022-09-18T20:51:35.845Z,0.75
2022-09-18T20:54:04.559Z,0.90
2022-09-18T20:56:33.825Z,1.35
2022-09-18T20:59:06.009Z,1.48
2022-09-18T21:01:37.899Z,1.10
2022-09-18T21:04:04.531Z,1.35
2022-09-18T21:06:35.056Z,1.35
2022-09-18T21:09:07.395Z,1.00
2022-09-18T21:11:37.363Z,1.10
2022-09-18T21:14:05.430Z,1.23
2022-09-18T21:16:36.477Z,1.13
2022-09-18T21:19:07.131Z,1.05
2022-09-18T21:21:34.070Z,1.20
2022-09-18T21:24:06.148Z,0.85
2022-09-18T21:26:38.314Z,1.10
2022-09-18T21:29:11.175Z,1.13
2022-09-18T21:31:42.186Z,1.20
2022-09-18T21:34:13.129Z,1.00
2022-09-18T21:36:43.265Z,1.30
2022-09-18T21:39:14.369Z,1.30
2022-09-18T21:41:45.892Z,1.25
2022-09-18T21:44:14.890Z,1.15
2022-09-18T21:46:42.686Z,1.20
2022-09-18T21:49:10.148Z,1.10
2022-09-18T21:51:41.078Z,1.20
2022-09-18T21:54:14.994Z,1.08
2022-09-18T21:56:42.501Z,1.20
2022-09-18T21:59:09.941Z,1.20
2022-09-18T22:01:37.924Z,1.50
2022-09-18T22:04:07.098Z,1.65
2022-09-18T22:06:36.225Z,1.08
2022-09-18T22:09:13.830Z,1.17
2022-09-18T22:11:41.872Z,2.30
2022-09-18T22:14:11.354Z,1.33
2022-09-18T22:16:38.128Z,0.95
2022-09-18T22:19:08.250Z,1.00
2022-09-18T22:21:37.409Z,0.73
2022-09-18T22:24:09.911Z,1.20
2022-09-18T22:26:39.098Z,1.05
2022-09-18T22:29:08.245Z,1.20
2022-09-18T22:31:36.265Z,1.05
2022-09-18T22:34:03.484Z,1.02
2022-09-18T22:36:29.850Z,1.42
2022-09-18T22:38:56.517Z,1.02
2022-09-18T22:41:22.954Z,1.58
2022-09-18T22:43:54.304Z,0.90
2022-09-18T22:46:21.076Z,1.00
2022-09-18T22:48:47.602Z,2.63
2022-09-18T22:51:17.438Z,0.93
2022-09-18T22:53:52.529Z,0.90
2022-09-18T22:56:20.418Z,0.90
2022-09-18T22:58:47.762Z,0.98
2022-09-18T23:01:21.411Z,1.00
2022-09-18T23:03:49.875Z,1.15
2022-09-18T23:06:17.043Z,1.27
2022-09-18T23:08:47.700Z,0.98
2022-09-18T23:11:16.557Z,1.83
2022-09-18T23:13:52.479Z,1.50
2022-09-18T23:16:19.690Z,1.42
2022-09-18T23:18:53.018Z,1.27
2022-09-18T23:21:20.914Z,1.17
2022-09-18T23:23:48.590Z,1.05
2022-09-18T23:26:23.083Z,1.13
2022-09-18T23:28:52.106Z,1.63
2022-09-18T23:31:24.595Z,0.98
2022-09-18T23:33:56.293Z,1.88
2022-09-18T23:36:27.618Z,1.80
2022-09-18T23:41:38.216Z,1.10
2022-09-18T23:44:07.295Z,1.20
2022-09-18T23:46:33.877Z,1.55
2022-09-18T23:49:00.362Z,1.00
2022-09-18T23:51:29.716Z,1.50
2022-09-18T23:53:57.084Z,1.30
2022-09-18T23:56:24.056Z,1.50
2022-09-18T23:58:55.103Z,1.48
